createdAt,value
2019-04-25T00:01:54.190Z,15.3
2019-04-25T00:06:59.240Z,15.3
2019-04-25T00:12:04.389Z,15.3
2019-04-25T00:17:08.055Z,15.2
2019-04-25T00:22:13.776Z,15.1
2019-04-25T00:27:19.086Z,15.1
2019-04-25T00:32:25.901Z,15.1
2019-04-25T00:37:33.239Z,15.1
2019-04-25T00:42:38.126Z,15.1
2019-04-25T00:47:45.746Z,15
2019-04-25T00:52:53.687Z,15
2019-04-25T00:57:57.542Z,15
2019-04-25T01:03:05.054Z,15
2019-04-25T01:08:11.959Z,14.9
2019-04-25T01:13:17.008Z,14.9
2019-04-25T01:18:25.188Z,14.9
2019-04-25T01:23:33.461Z,14.9
2019-04-25T01:28:38.756Z,14.9
2019-04-25T01:33:45.138Z,14.7
2019-04-25T01:38:53.320Z,14.7
2019-04-25T01:44:00.832Z,14.6
2019-04-25T01:48:57.588Z,14.5
2019-04-25T01:54:05.089Z,14.5
2019-04-25T01:59:10.386Z,14.5
2019-04-25T02:04:15.468Z,14.4
2019-04-25T02:09:20.829Z,14.4
2019-04-25T02:14:26.129Z,14.3
2019-04-25T02:19:31.824Z,14.1
2019-04-25T02:24:39.936Z,14.1
2019-04-25T02:29:46.591Z,14
2019-04-25T02:34:51.721Z,14
2019-04-25T02:45:03.097Z,13.7
2019-04-25T02:50:09.952Z,13.7
2019-04-25T02:55:27.802Z,13.6
2019-04-25T03:00:10.697Z,13.5
2019-04-25T03:05:16.426Z,13.4
2019-04-25T03:10:30.343Z,13.4
2019-04-25T03:15:26.128Z,13.4
2019-04-25T03:20:31.064Z,13.3
2019-04-25T03:25:37.891Z,13.2
2019-04-25T03:30:45.893Z,13.2
2019-04-25T03:35:51.054Z,13.2
2019-04-25T03:40:57.764Z,13.1
2019-04-25T03:46:08.236Z,13
2019-04-25T03:51:07.987Z,12.9
2019-04-25T03:56:15.494Z,12.9
2019-04-25T04:01:20.839Z,12.9
2019-04-25T04:06:25.888Z,12.8
2019-04-25T04:11:31.082Z,12.8
2019-04-25T04:16:38.048Z,12.8
2019-04-25T04:21:45.106Z,12.8
2019-04-25T04:27:03.170Z,12.8
2019-04-25T04:31:54.367Z,13
2019-04-25T04:37:00.093Z,12.9
2019-04-25T04:42:05.982Z,12.9
2019-04-25T04:47:16.650Z,13.1
2019-04-25T04:52:26.063Z,13.3
2019-04-25T04:57:37.641Z,13.5
2019-04-25T05:02:34.454Z,13.7
2019-04-25T05:07:39.363Z,13.7
2019-04-25T05:12:45.824Z,14
2019-04-25T05:17:50.953Z,14
2019-04-25T05:22:56.837Z,14.4
2019-04-25T05:28:06.489Z,14.8
2019-04-25T05:33:13.807Z,14.9
2019-04-25T05:38:17.665Z,15.2
2019-04-25T05:43:25.825Z,15.3
2019-04-25T05:48:31.291Z,15.2
2019-04-25T05:53:38.801Z,15.4
2019-04-25T05:58:45.697Z,16
2019-04-25T06:03:50.724Z,16
2019-04-25T06:08:55.811Z,16.2
2019-04-25T06:14:03.366Z,16.5
2019-04-25T06:19:20.748Z,16.7
2019-04-25T06:24:08.827Z,16.7
2019-04-25T06:29:15.265Z,17.3
2019-04-25T06:34:35.979Z,17.7
2019-04-25T06:39:29.990Z,17.7
2019-04-25T06:44:30.473Z,18.1
2019-04-25T06:49:39.342Z,18.3
2019-04-25T06:54:38.530Z,18.3
2019-04-25T06:59:45.948Z,19.1
2019-04-25T07:04:54.571Z,19.2
2019-04-25T07:10:00.061Z,19.3
2019-04-25T07:15:05.879Z,19.9
2019-04-25T07:20:10.890Z,19.9
2019-04-25T07:25:17.381Z,21
2019-04-25T07:30:52.573Z,21.6
2019-04-25T07:35:29.017Z,22.3
2019-04-25T07:40:37.041Z,22.5
2019-04-25T07:45:44.667Z,22.7
2019-04-25T07:50:48.267Z,22.7
2019-04-25T07:55:55.259Z,24.2
2019-04-25T08:00:55.028Z,25.4
2019-04-25T08:06:01.099Z,26.4
2019-04-25T08:11:07.998Z,26.4
2019-04-25T08:16:16.380Z,28.9
2019-04-25T08:21:13.384Z,28.8
2019-04-25T08:26:19.656Z,30
2019-04-25T08:31:26.873Z,33.3
2019-04-25T08:36:38.564Z,33.1
2019-04-25T08:41:38.469Z,33.6
2019-04-25T08:46:40.377Z,33.6
2019-04-25T08:51:38.888Z,35.5
2019-04-25T08:56:45.765Z,35.8
2019-04-25T09:01:51.398Z,37.3
2019-04-25T09:06:57.852Z,37.2
2019-04-25T09:12:04.172Z,38.3
2019-04-25T09:17:10.133Z,36.7
2019-04-25T09:22:15.712Z,35.4
2019-04-25T09:27:21.088Z,34
2019-04-25T09:32:28.295Z,35.1
2019-04-25T09:37:40.634Z,37.3
2019-04-25T09:42:38.060Z,37.6
2019-04-25T09:47:39.197Z,36.2
2019-04-25T09:52:49.710Z,36.9
2019-04-25T09:57:48.594Z,34.6
2019-04-25T10:02:56.440Z,36.4
2019-04-25T10:08:00.131Z,36.4
2019-04-25T10:13:08.117Z,33.4
2019-04-25T10:18:18.816Z,33.8
2019-04-25T10:23:28.507Z,33.2
2019-04-25T10:28:26.229Z,33.2
2019-04-25T10:33:31.250Z,33.7
2019-04-25T10:38:42.038Z,36.6
2019-04-25T10:43:48.088Z,38.1
2019-04-25T10:48:57.912Z,36.3
2019-04-25T10:54:05.119Z,37.2
2019-04-25T10:59:10.189Z,37.2
2019-04-25T11:04:15.733Z,35.9
2019-04-25T11:09:15.839Z,35.9
2019-04-25T11:14:20.755Z,34.7
2019-04-25T11:19:27.839Z,32.5
2019-04-25T11:24:31.306Z,32.4
2019-04-25T11:29:41.610Z,34.2
2019-04-25T11:34:43.131Z,34.2
2019-04-25T11:39:47.278Z,32
2019-04-25T11:44:47.359Z,29.9
2019-04-25T11:49:47.819Z,27.8
2019-04-25T11:54:50.015Z,27
2019-04-25T11:59:52.377Z,26.7
2019-04-25T12:04:51.023Z,27.3
2019-04-25T12:09:57.607Z,27.7
2019-04-25T12:15:04.293Z,27.8
2019-04-25T12:20:14.124Z,28.1
2019-04-25T12:25:17.778Z,28.1
2019-04-25T12:30:43.826Z,29.8
2019-04-25T12:35:35.172Z,29.9
2019-04-25T12:40:40.103Z,29.9
2019-04-25T12:45:47.266Z,29.3
2019-04-25T12:50:55.465Z,28.1
2019-04-25T12:56:01.132Z,28
2019-04-25T13:01:06.451Z,27.4
2019-04-25T13:06:11.356Z,27.1
2019-04-25T13:11:18.474Z,27.3
2019-04-25T13:16:25.387Z,27
2019-04-25T13:21:30.393Z,27
2019-04-25T13:26:35.761Z,27
2019-04-25T13:31:41.069Z,26.3
2019-04-25T13:36:46.282Z,26
2019-04-25T13:41:52.413Z,26.3
2019-04-25T13:47:00.055Z,26.3
2019-04-25T13:52:05.575Z,26.3
2019-04-25T13:57:10.534Z,26.1
2019-04-25T14:02:15.852Z,26
2019-04-25T14:07:22.711Z,26.3
2019-04-25T14:12:28.899Z,26.4
2019-04-25T14:17:26.985Z,26.3
2019-04-25T14:22:33.551Z,26.2
2019-04-25T14:27:38.817Z,26.2
2019-04-25T14:32:45.442Z,25.9
2019-04-25T14:37:50.780Z,25.9
2019-04-25T14:42:56.119Z,25.9
2019-04-25T14:48:01.795Z,25.7
2019-04-25T14:53:07.152Z,25.7
2019-04-25T14:58:10.676Z,25.5
2019-04-25T15:03:15.888Z,25.5
2019-04-25T15:08:19.488Z,25.5
2019-04-25T15:13:26.608Z,25.5
2019-04-25T15:18:34.135Z,25.4
2019-04-25T15:23:44.078Z,25.4
2019-04-25T15:28:49.150Z,25.4
2019-04-25T15:33:55.036Z,25.2
2019-04-25T15:39:00.234Z,25.1
2019-04-25T15:44:05.210Z,25.2
2019-04-25T15:49:10.139Z,25.1
2019-04-25T15:54:15.058Z,25.1
2019-04-25T15:59:20.465Z,25
2019-04-25T16:04:21.383Z,25
2019-04-25T16:09:27.834Z,24.8
2019-04-25T16:14:34.327Z,24.8
2019-04-25T16:19:41.176Z,24.8
2019-04-25T16:24:49.490Z,24.7
2019-04-25T16:29:54.543Z,24.6
2019-04-25T16:35:03.744Z,24.4
2019-04-25T16:40:09.430Z,24.4
2019-04-25T16:45:13.884Z,24.2
2019-04-25T16:50:22.911Z,24.2
2019-04-25T16:55:27.504Z,24.1
2019-04-25T17:00:36.174Z,23.9
2019-04-25T17:05:37.087Z,23.8
2019-04-25T17:10:43.893Z,23.6
2019-04-25T17:15:51.768Z,23.5
2019-04-25T17:20:56.770Z,23.4
2019-04-25T17:26:00.278Z,23.2
2019-04-25T17:31:05.688Z,22.8
2019-04-25T17:36:11.660Z,22.6
2019-04-25T17:41:20.986Z,22.6
2019-04-25T17:46:28.367Z,22.3
2019-04-25T17:51:31.232Z,22.2
2019-04-25T17:56:38.565Z,22.2
2019-04-25T18:01:44.271Z,22.1
2019-04-25T18:06:49.528Z,22.1
2019-04-25T18:11:54.645Z,21.9
2019-04-25T18:16:59.215Z,21.8
2019-04-25T18:22:04.061Z,21.7
2019-04-25T18:27:10.446Z,21.7
2019-04-25T18:32:15.574Z,21.5
2019-04-25T18:37:21.199Z,21.4
2019-04-25T18:42:26.128Z,21.3
2019-04-25T18:52:39.973Z,20.8
2019-04-25T18:57:47.225Z,20.7
2019-04-25T19:02:50.811Z,20.7
2019-04-25T19:07:58.856Z,20.6
2019-04-25T19:13:14.744Z,20.5
2019-04-25T19:18:12.880Z,20.5
2019-04-25T19:23:17.713Z,20.4
2019-04-25T19:28:22.815Z,20.4
2019-04-25T19:33:37.672Z,20.4
2019-04-25T19:38:35.016Z,20.4
2019-04-25T19:43:43.204Z,20.4
2019-04-25T19:48:50.971Z,20.3
2019-04-25T19:53:56.203Z,20.3
2019-04-25T19:59:01.295Z,20.1
2019-04-25T20:04:06.780Z,20
2019-04-25T20:09:11.853Z,19.9
2019-04-25T20:14:16.936Z,19.8
2019-04-25T20:19:22.110Z,19.7
2019-04-25T20:24:27.521Z,19.7
2019-04-25T20:29:31.254Z,19.6
2019-04-25T20:34:39.473Z,19.6
2019-04-25T20:39:47.265Z,19.5
2019-04-25T20:44:53.752Z,19.5
2019-04-25T20:49:58.826Z,19.5
2019-04-25T20:55:03.974Z,19.4
2019-04-25T21:00:09.183Z,19.4
2019-04-25T21:05:14.640Z,19.3
2019-04-25T21:10:19.901Z,19.3
2019-04-25T21:15:23.347Z,19.2
2019-04-25T21:20:28.396Z,19.1
2019-04-25T21:25:33.350Z,19
2019-04-25T21:30:38.545Z,18.9
2019-04-25T21:35:44.156Z,18.8
2019-04-25T21:40:51.325Z,18.8
2019-04-25T21:46:00.564Z,18.8
2019-04-25T21:51:08.125Z,18.6
2019-04-25T21:56:11.751Z,18.6
2019-04-25T22:01:17.174Z,18.6
2019-04-25T22:06:22.160Z,18.7
2019-04-25T22:11:27.856Z,18.7
2019-04-25T22:16:32.952Z,18.6
2019-04-25T22:21:40.589Z,18.6
2019-04-25T22:26:45.776Z,18.6
2019-04-25T22:31:49.333Z,18.5
2019-04-25T22:36:54.358Z,18.5
2019-04-25T22:42:03.873Z,18.3
2019-04-25T22:47:02.267Z,18.1
2019-04-25T22:52:09.977Z,18.1
2019-04-25T22:57:16.360Z,18.1
2019-04-25T23:02:23.296Z,18.2
2019-04-25T23:07:29.448Z,18.3
2019-04-25T23:12:35.071Z,18.2
2019-04-25T23:17:41.105Z,18.3
2019-04-25T23:22:47.830Z,18.3
2019-04-25T23:27:53.759Z,18.3
2019-04-25T23:32:59.405Z,18.3
2019-04-25T23:38:05.745Z,18.2
2019-04-25T23:43:13.535Z,18.2
2019-04-25T23:48:18.692Z,18.2
2019-04-25T23:53:23.754Z,18.1
2019-04-25T23:58:29.709Z,17.8
